createdAt,value
2019-04-28T00:02:03.268Z,8.90
2019-04-28T00:04:31.606Z,8.90
2019-04-28T00:07:01.627Z,8.90
2019-04-28T00:09:29.208Z,8.90
2019-04-28T00:11:56.885Z,8.80
2019-04-28T00:14:24.756Z,8.80
2019-04-28T00:16:51.955Z,8.90
2019-04-28T00:19:20.926Z,8.90
2019-04-28T00:22:11.032Z,8.90
2019-04-28T00:25:01.626Z,8.90
2019-04-28T00:27:29.188Z,8.90
2019-04-28T00:29:56.794Z,8.90
2019-04-28T00:32:24.776Z,8.90
2019-04-28T00:34:52.335Z,8.90
2019-04-28T00:37:27.607Z,8.90
2019-04-28T00:39:55.125Z,9.00
2019-04-28T00:42:22.851Z,8.90
2019-04-28T00:44:51.488Z,8.90
2019-04-28T00:47:21.072Z,8.90
2019-04-28T00:49:48.980Z,8.90
2019-04-28T00:52:17.594Z,8.90
2019-04-28T00:54:46.002Z,8.90
2019-04-28T00:57:14.328Z,8.80
2019-04-28T00:59:54.015Z,8.90
2019-04-28T01:02:22.450Z,8.80
2019-04-28T01:04:51.419Z,8.80
2019-04-28T01:07:18.846Z,8.80
2019-04-28T01:09:46.386Z,8.80
2019-04-28T01:12:13.934Z,8.90
2019-04-28T01:14:43.506Z,8.90
2019-04-28T01:17:20.062Z,8.80
2019-04-28T01:19:51.384Z,8.80
2019-04-28T01:22:20.172Z,8.90
2019-04-28T01:24:49.566Z,8.80
2019-04-28T01:27:42.735Z,8.90
2019-04-28T01:30:20.211Z,8.80
2019-04-28T01:32:54.642Z,8.80
2019-04-28T01:35:22.195Z,8.80
2019-04-28T01:37:50.524Z,8.80
2019-04-28T01:40:20.025Z,8.80
2019-04-28T01:42:49.836Z,8.80
2019-04-28T01:45:17.495Z,8.80
2019-04-28T01:47:45.031Z,8.90
2019-04-28T01:50:12.496Z,8.80
2019-04-28T01:52:40.070Z,8.80
2019-04-28T01:55:07.659Z,8.80
2019-04-28T01:57:34.843Z,8.80
2019-04-28T02:00:02.288Z,8.80
2019-04-28T02:02:30.200Z,8.80
2019-04-28T02:04:59.688Z,8.80
2019-04-28T02:07:27.101Z,8.80
2019-04-28T02:09:54.554Z,8.80
2019-04-28T02:12:21.783Z,8.80
2019-04-28T02:14:49.991Z,8.80
2019-04-28T02:17:20.265Z,8.80
2019-04-28T02:19:48.450Z,8.80
2019-04-28T02:22:33.438Z,8.80
2019-04-28T02:25:01.293Z,8.80
2019-04-28T02:27:30.232Z,8.80
2019-04-28T02:29:57.574Z,8.80
2019-04-28T02:32:25.053Z,8.80
2019-04-28T02:34:52.254Z,8.80
2019-04-28T02:37:20.573Z,8.80
2019-04-28T02:39:50.571Z,8.80
2019-04-28T02:42:20.630Z,8.80
2019-04-28T02:44:47.029Z,8.80
2019-04-28T02:47:14.606Z,8.80
2019-04-28T02:50:07.857Z,8.80
2019-04-28T02:53:12.867Z,8.70
2019-04-28T02:55:41.288Z,8.70
2019-04-28T02:58:11.335Z,8.80
2019-04-28T03:00:41.002Z,8.80
2019-04-28T03:03:07.546Z,8.80
2019-04-28T03:05:34.973Z,8.80
2019-04-28T03:08:02.232Z,8.80
2019-04-28T03:10:31.068Z,8.70
2019-04-28T03:13:01.104Z,8.70
2019-04-28T03:15:30.320Z,8.70
2019-04-28T03:18:01.430Z,8.70
2019-04-28T03:20:29.759Z,8.70
2019-04-28T03:22:57.671Z,8.70
2019-04-28T03:25:50.675Z,8.70
2019-04-28T03:28:41.499Z,8.70
2019-04-28T03:32:04.138Z,8.70
2019-04-28T03:34:12.962Z,8.60
2019-04-28T03:36:40.838Z,8.60
2019-04-28T03:39:11.023Z,8.60
2019-04-28T03:41:40.342Z,8.60
2019-04-28T03:44:07.127Z,8.60
2019-04-28T03:46:41.198Z,8.60
2019-04-28T03:49:10.843Z,8.50
2019-04-28T03:51:40.607Z,8.50
2019-04-28T03:54:07.610Z,8.50
2019-04-28T03:56:35.188Z,8.50
2019-04-28T03:59:02.751Z,8.50
2019-04-28T04:01:30.606Z,8.50
2019-04-28T04:03:58.266Z,8.40
2019-04-28T04:06:25.724Z,8.40
2019-04-28T04:08:53.621Z,8.50
2019-04-28T04:11:31.319Z,8.40
2019-04-28T04:14:11.454Z,8.30
2019-04-28T04:16:47.325Z,8.30
2019-04-28T04:19:15.612Z,8.30
2019-04-28T04:21:43.475Z,8.30
2019-04-28T04:24:10.932Z,8.30
2019-04-28T04:26:40.953Z,8.30
2019-04-28T04:29:10.182Z,8.30
2019-04-28T04:31:37.319Z,8.30
2019-04-28T04:34:04.904Z,8.30
2019-04-28T04:36:32.108Z,8.30
2019-04-28T04:39:01.763Z,8.20
2019-04-28T04:41:30.580Z,8.30
2019-04-28T04:44:00.751Z,8.30
2019-04-28T04:46:27.164Z,8.30
2019-04-28T04:48:54.480Z,8.30
2019-04-28T04:51:23.354Z,8.40
2019-04-28T04:53:51.636Z,8.30
2019-04-28T04:56:21.077Z,8.30
2019-04-28T04:58:50.251Z,8.30
2019-04-28T05:01:35.496Z,8.30
2019-04-28T05:04:19.690Z,8.30
2019-04-28T05:06:47.277Z,8.30
2019-04-28T05:09:14.478Z,8.30
2019-04-28T05:11:41.938Z,8.40
2019-04-28T05:14:11.614Z,8.40
2019-04-28T05:16:39.841Z,8.40
2019-04-28T05:19:09.546Z,8.40
2019-04-28T05:21:37.213Z,8.40
2019-04-28T05:24:22.751Z,8.40
2019-04-28T05:26:51.562Z,8.50
2019-04-28T05:29:26.636Z,8.50
2019-04-28T05:31:50.400Z,8.60
2019-04-28T05:34:18.162Z,8.60
2019-04-28T05:36:45.811Z,8.60
2019-04-28T05:39:13.291Z,8.60
2019-04-28T05:41:40.856Z,8.60
2019-04-28T05:44:09.920Z,8.60
2019-04-28T05:46:37.529Z,8.70
2019-04-28T05:49:13.477Z,8.70
2019-04-28T05:51:42.679Z,8.70
2019-04-28T05:54:16.837Z,8.70
2019-04-28T05:57:03.390Z,8.80
2019-04-28T05:59:44.056Z,8.80
2019-04-28T06:02:16.136Z,8.80
2019-04-28T06:04:43.331Z,8.80
2019-04-28T06:07:20.247Z,8.80
2019-04-28T06:09:50.198Z,8.90
2019-04-28T06:12:20.125Z,8.90
2019-04-28T06:14:47.891Z,8.90
2019-04-28T06:17:17.326Z,8.90
2019-04-28T06:19:45.447Z,9.00
2019-04-28T06:22:12.967Z,9.00
2019-04-28T06:24:40.183Z,9.00
2019-04-28T06:27:07.998Z,9.10
2019-04-28T06:29:35.556Z,9.10
2019-04-28T06:32:02.863Z,9.20
2019-04-28T06:34:30.737Z,9.20
2019-04-28T06:36:58.299Z,9.20
2019-04-28T06:39:25.511Z,9.30
2019-04-28T06:41:53.672Z,9.30
2019-04-28T06:44:21.245Z,9.30
2019-04-28T06:46:48.453Z,9.40
2019-04-28T06:49:15.911Z,9.40
2019-04-28T06:51:43.472Z,9.40
2019-04-28T06:54:10.940Z,9.40
2019-04-28T06:56:38.829Z,9.40
2019-04-28T06:59:06.481Z,9.50
2019-04-28T07:01:34.659Z,9.50
2019-04-28T07:04:02.647Z,9.60
2019-04-28T07:06:30.196Z,9.70
2019-04-28T07:08:58.371Z,9.70
2019-04-28T07:11:25.941Z,9.80
2019-04-28T07:13:53.129Z,9.90
2019-04-28T07:16:21.562Z,10.00
2019-04-28T07:18:49.244Z,10.00
2019-04-28T07:21:42.812Z,10.10
2019-04-28T07:24:10.891Z,10.10
2019-04-28T07:26:38.763Z,10.30
2019-04-28T07:29:06.226Z,10.40
2019-04-28T07:31:33.603Z,10.40
2019-04-28T07:34:03.019Z,10.50
2019-04-28T07:36:30.542Z,10.60
2019-04-28T07:38:58.423Z,10.70
2019-04-28T07:41:25.960Z,10.70
2019-04-28T07:43:53.860Z,10.80
2019-04-28T07:46:21.420Z,10.90
2019-04-28T07:48:52.282Z,11.00
2019-04-28T07:51:21.360Z,11.10
2019-04-28T07:53:52.735Z,11.10
2019-04-28T07:56:21.320Z,11.20
2019-04-28T07:58:48.805Z,11.20
2019-04-28T08:01:16.103Z,11.20
2019-04-28T08:03:49.715Z,11.20
2019-04-28T08:06:13.396Z,11.20
2019-04-28T08:08:41.146Z,11.20
2019-04-28T08:11:09.135Z,11.30
2019-04-28T08:13:37.024Z,11.30
2019-04-28T08:16:04.416Z,11.40
2019-04-28T08:18:31.905Z,11.50
2019-04-28T08:21:00.312Z,11.50
2019-04-28T08:23:27.905Z,11.50
2019-04-28T08:25:55.106Z,11.60
2019-04-28T08:28:22.450Z,11.70
2019-04-28T08:30:49.724Z,11.80
2019-04-28T08:33:36.316Z,11.80
2019-04-28T08:36:03.610Z,11.80
2019-04-28T08:38:31.466Z,11.80
2019-04-28T08:41:00.651Z,11.80
2019-04-28T08:43:28.555Z,11.70
2019-04-28T08:45:56.160Z,11.70
2019-04-28T08:48:23.762Z,11.70
2019-04-28T08:50:51.312Z,11.70
2019-04-28T08:53:18.914Z,11.70
2019-04-28T08:55:46.014Z,11.70
2019-04-28T08:58:13.246Z,11.60
2019-04-28T09:00:40.438Z,11.60
2019-04-28T09:03:08.253Z,11.70
2019-04-28T09:05:35.733Z,11.60
2019-04-28T09:08:03.588Z,11.70
2019-04-28T09:10:30.794Z,11.80
2019-04-28T09:12:58.306Z,11.90
2019-04-28T09:15:25.870Z,12.00
2019-04-28T09:17:53.095Z,12.10
2019-04-28T09:20:20.695Z,12.10
2019-04-28T09:22:48.567Z,12.10
2019-04-28T09:25:16.032Z,12.10
2019-04-28T09:27:43.905Z,12.20
2019-04-28T09:30:11.451Z,12.20
2019-04-28T09:32:39.337Z,12.20
2019-04-28T09:35:06.761Z,12.30
2019-04-28T09:37:34.467Z,12.40
2019-04-28T09:40:09.015Z,12.50
2019-04-28T09:42:49.891Z,12.60
2019-04-28T09:45:25.763Z,12.60
2019-04-28T09:47:53.281Z,12.70
2019-04-28T09:50:21.260Z,12.70
2019-04-28T09:52:49.086Z,12.70
2019-04-28T09:55:16.439Z,12.60
2019-04-28T09:57:43.624Z,12.60
2019-04-28T10:00:11.867Z,12.50
2019-04-28T10:02:39.478Z,12.40
2019-04-28T10:05:08.200Z,12.30
2019-04-28T10:07:36.038Z,12.10
2019-04-28T10:10:04.270Z,11.80
2019-04-28T10:12:31.517Z,11.60
2019-04-28T10:14:59.196Z,11.40
2019-04-28T10:17:26.554Z,11.20
2019-04-28T10:19:54.126Z,11.00
2019-04-28T10:22:22.184Z,10.90
2019-04-28T10:24:50.450Z,10.70
2019-04-28T10:27:18.199Z,10.60
2019-04-28T10:29:45.532Z,10.50
2019-04-28T10:32:12.828Z,10.30
2019-04-28T10:34:40.367Z,10.30
2019-04-28T10:37:07.661Z,10.20
2019-04-28T10:39:50.926Z,10.10
2019-04-28T10:42:18.241Z,10.00
2019-04-28T10:44:47.277Z,10.00
2019-04-28T10:47:15.000Z,10.00
2019-04-28T10:49:42.248Z,10.00
2019-04-28T10:52:09.446Z,10.10
2019-04-28T10:54:37.470Z,10.20
2019-04-28T10:57:04.704Z,10.30
2019-04-28T10:59:32.291Z,10.50
2019-04-28T11:01:59.697Z,10.60
2019-04-28T11:05:08.065Z,10.70
2019-04-28T11:07:28.270Z,11.00
2019-04-28T11:10:02.179Z,11.20
2019-04-28T11:12:29.930Z,11.30
2019-04-28T11:14:57.167Z,11.40
2019-04-28T11:17:25.507Z,11.60
2019-04-28T11:19:53.341Z,11.60
2019-04-28T11:22:20.852Z,11.80
2019-04-28T11:24:48.561Z,11.90
2019-04-28T11:27:17.936Z,11.90
2019-04-28T11:29:45.271Z,12.10
2019-04-28T11:32:13.724Z,12.30
2019-04-28T11:34:56.667Z,12.30
2019-04-28T11:37:24.510Z,12.30
2019-04-28T11:39:52.027Z,12.20
2019-04-28T11:42:19.635Z,12.10
2019-04-28T11:44:47.720Z,12.20
2019-04-28T11:47:17.651Z,12.40
2019-04-28T11:49:45.705Z,12.50
2019-04-28T11:52:12.934Z,12.50
2019-04-28T11:54:40.428Z,12.50
2019-04-28T11:57:07.986Z,12.40
2019-04-28T11:59:35.551Z,12.30
2019-04-28T12:02:03.934Z,12.30
2019-04-28T12:04:31.778Z,12.30
2019-04-28T12:06:59.011Z,12.30
2019-04-28T12:09:32.227Z,12.30
2019-04-28T12:12:00.308Z,12.30
2019-04-28T12:14:50.515Z,12.20
2019-04-28T12:17:37.727Z,12.10
2019-04-28T12:20:12.958Z,12.10
2019-04-28T12:22:40.531Z,12.00
2019-04-28T12:25:07.839Z,11.90
2019-04-28T12:27:35.359Z,11.90
2019-04-28T12:30:03.533Z,11.80
2019-04-28T12:32:30.772Z,11.80
2019-04-28T12:34:58.350Z,11.80
2019-04-28T12:37:27.643Z,11.90
2019-04-28T12:39:56.319Z,12.00
2019-04-28T12:42:23.808Z,12.00
2019-04-28T12:44:51.044Z,12.20
2019-04-28T12:47:18.289Z,12.30
2019-04-28T12:49:51.571Z,12.40
2019-04-28T12:52:18.814Z,12.60
2019-04-28T12:54:46.749Z,12.60
2019-04-28T12:57:14.490Z,12.70
2019-04-28T12:59:53.161Z,12.70
2019-04-28T13:02:43.006Z,12.80
2019-04-28T13:05:12.527Z,12.90
2019-04-28T13:07:39.980Z,12.90
2019-04-28T13:10:07.824Z,12.90
2019-04-28T13:12:35.062Z,13.00
2019-04-28T13:15:02.575Z,13.10
2019-04-28T13:17:29.777Z,13.00
2019-04-28T13:19:57.004Z,13.00
2019-04-28T13:22:24.551Z,13.00
2019-04-28T13:24:52.181Z,13.00
2019-04-28T13:27:19.779Z,13.00
2019-04-28T13:29:47.418Z,13.00
2019-04-28T13:32:15.321Z,13.00
2019-04-28T13:34:43.009Z,13.00
2019-04-28T13:37:11.055Z,12.90
2019-04-28T13:39:47.220Z,12.90
2019-04-28T13:42:14.836Z,13.00
2019-04-28T13:44:56.093Z,13.00
2019-04-28T13:47:23.310Z,13.00
2019-04-28T13:50:01.496Z,13.00
2019-04-28T13:52:29.808Z,13.00
2019-04-28T13:55:16.757Z,13.10
2019-04-28T13:57:44.619Z,13.10
2019-04-28T14:00:14.159Z,13.20
2019-04-28T14:02:56.895Z,13.20
2019-04-28T14:05:45.296Z,13.20
2019-04-28T14:08:13.240Z,13.20
2019-04-28T14:10:40.790Z,13.20
2019-04-28T14:13:08.261Z,13.20
2019-04-28T14:15:35.579Z,13.20
2019-04-28T14:18:03.240Z,13.20
2019-04-28T14:20:31.500Z,13.30
2019-04-28T14:22:58.768Z,13.30
2019-04-28T14:25:26.016Z,13.20
2019-04-28T14:27:53.405Z,13.20
2019-04-28T14:30:20.890Z,13.10
2019-04-28T14:32:48.451Z,13.00
2019-04-28T14:35:16.230Z,12.90
2019-04-28T14:37:43.523Z,12.80
2019-04-28T14:40:10.770Z,12.80
2019-04-28T14:42:38.412Z,12.70
2019-04-28T14:45:05.993Z,12.60
2019-04-28T14:47:33.959Z,12.50
2019-04-28T14:50:02.940Z,12.50
2019-04-28T14:52:30.438Z,12.40
2019-04-28T14:54:57.974Z,12.30
2019-04-28T14:57:25.833Z,12.20
2019-04-28T14:59:53.059Z,12.20
2019-04-28T15:02:58.316Z,12.10
2019-04-28T15:05:39.033Z,12.10
2019-04-28T15:08:14.753Z,12.10
2019-04-28T15:11:02.355Z,12.00
2019-04-28T15:13:30.238Z,12.00
2019-04-28T15:15:58.170Z,11.90
2019-04-28T15:18:25.872Z,11.90
2019-04-28T15:20:53.211Z,11.80
2019-04-28T15:23:20.466Z,11.80
2019-04-28T15:25:47.650Z,11.80
2019-04-28T15:28:14.843Z,11.70
2019-04-28T15:30:42.458Z,11.70
2019-04-28T15:33:10.131Z,11.60
2019-04-28T15:35:37.982Z,11.60
2019-04-28T15:38:05.191Z,11.60
2019-04-28T15:40:34.147Z,11.50
2019-04-28T15:43:01.332Z,11.40
2019-04-28T15:45:28.871Z,11.30
2019-04-28T15:47:56.743Z,11.30
2019-04-28T15:50:25.283Z,11.10
2019-04-28T15:52:52.906Z,11.10
2019-04-28T15:55:25.776Z,11.00
2019-04-28T15:57:53.656Z,11.00
2019-04-28T16:00:20.935Z,11.00
2019-04-28T16:02:48.157Z,10.90
2019-04-28T16:05:17.177Z,10.90
2019-04-28T16:07:45.448Z,10.90
2019-04-28T16:10:13.280Z,10.90
2019-04-28T16:12:41.878Z,10.90
2019-04-28T16:15:09.286Z,10.80
2019-04-28T16:17:37.039Z,10.80
2019-04-28T16:20:04.391Z,10.80
2019-04-28T16:22:31.614Z,10.80
2019-04-28T16:24:59.113Z,10.80
2019-04-28T16:27:26.329Z,10.80
2019-04-28T16:29:54.021Z,10.70
2019-04-28T16:32:21.599Z,10.80
2019-04-28T16:34:49.471Z,10.70
2019-04-28T16:37:16.730Z,10.70
2019-04-28T16:39:43.963Z,10.70
2019-04-28T16:42:15.987Z,10.70
2019-04-28T16:44:57.718Z,10.80
2019-04-28T16:47:25.306Z,10.80
2019-04-28T16:49:54.632Z,10.80
2019-04-28T16:52:24.323Z,10.90
2019-04-28T16:55:11.224Z,11.00
2019-04-28T16:57:45.757Z,11.00
2019-04-28T17:00:21.323Z,11.20
2019-04-28T17:02:50.966Z,11.20
2019-04-28T17:05:18.260Z,11.40
2019-04-28T17:07:52.580Z,11.30
2019-04-28T17:10:14.986Z,11.40
2019-04-28T17:12:42.911Z,11.40
2019-04-28T17:15:10.706Z,11.50
2019-04-28T17:17:38.213Z,11.50
2019-04-28T17:20:06.087Z,11.50
2019-04-28T17:22:33.686Z,11.40
2019-04-28T17:25:01.146Z,11.50
2019-04-28T17:27:28.603Z,11.40
2019-04-28T17:29:56.779Z,11.40
2019-04-28T17:32:23.995Z,11.40
2019-04-28T17:34:51.523Z,11.40
2019-04-28T17:37:18.908Z,11.40
2019-04-28T17:39:46.831Z,11.40
2019-04-28T17:42:16.135Z,11.40
2019-04-28T17:44:43.830Z,11.30
2019-04-28T17:47:12.363Z,11.30
2019-04-28T17:49:40.159Z,11.30
2019-04-28T17:52:09.054Z,11.20
2019-04-28T17:54:36.592Z,11.20
2019-04-28T17:57:04.775Z,11.20
2019-04-28T17:59:32.350Z,11.20
2019-04-28T18:02:15.575Z,11.10
2019-04-28T18:05:06.081Z,11.10
2019-04-28T18:07:35.632Z,11.10
2019-04-28T18:10:04.761Z,11.00
2019-04-28T18:12:32.335Z,11.00
2019-04-28T18:15:09.279Z,11.00
2019-04-28T18:17:46.906Z,10.90
2019-04-28T18:20:14.179Z,10.90
2019-04-28T18:22:42.369Z,10.80
2019-04-28T18:25:09.820Z,10.80
2019-04-28T18:27:37.717Z,10.70
2019-04-28T18:30:05.776Z,10.70
2019-04-28T18:33:02.011Z,10.60
2019-04-28T18:35:39.346Z,10.60
2019-04-28T18:38:35.101Z,10.50
2019-04-28T18:41:20.271Z,10.40
2019-04-28T18:44:10.211Z,10.30
2019-04-28T18:46:37.890Z,10.20
2019-04-28T18:49:05.099Z,10.10
2019-04-28T18:51:32.356Z,10.10
2019-04-28T18:53:59.702Z,10.00
2019-04-28T18:56:27.693Z,10.00
2019-04-28T18:58:55.082Z,9.90
2019-04-28T19:01:30.550Z,9.90
2019-04-28T19:03:58.011Z,9.80
2019-04-28T19:06:25.694Z,9.70
2019-04-28T19:08:58.138Z,9.60
2019-04-28T19:11:34.755Z,9.60
2019-04-28T19:14:10.471Z,9.50
2019-04-28T19:16:56.144Z,9.40
2019-04-28T19:19:24.223Z,9.30
2019-04-28T19:21:55.468Z,9.30
2019-04-28T19:24:23.988Z,9.30
2019-04-28T19:26:51.547Z,9.20
2019-04-28T19:29:18.798Z,9.20
2019-04-28T19:31:46.055Z,9.20
2019-04-28T19:34:14.211Z,9.10
2019-04-28T19:36:41.747Z,9.10
2019-04-28T19:39:09.619Z,9.00
2019-04-28T19:41:37.102Z,8.90
2019-04-28T19:44:04.664Z,8.90
2019-04-28T19:46:32.138Z,8.90
2019-04-28T19:48:59.992Z,8.90
2019-04-28T19:51:31.871Z,8.80
2019-04-28T19:53:59.224Z,8.80
2019-04-28T19:56:35.214Z,8.90
2019-04-28T19:59:13.435Z,8.80
2019-04-28T20:01:40.852Z,8.80
2019-04-28T20:04:08.625Z,8.80
2019-04-28T20:06:35.883Z,8.70
2019-04-28T20:09:05.252Z,8.70
2019-04-28T20:11:32.962Z,8.70
2019-04-28T20:14:00.518Z,8.60
2019-04-28T20:16:28.495Z,8.60
2019-04-28T20:18:55.884Z,8.60
2019-04-28T20:21:23.071Z,8.50
2019-04-28T20:23:50.267Z,8.50
2019-04-28T20:26:17.832Z,8.40
2019-04-28T20:28:45.063Z,8.40
2019-04-28T20:31:13.312Z,8.30
2019-04-28T20:33:40.823Z,8.30
2019-04-28T20:36:15.147Z,8.20
2019-04-28T20:38:43.018Z,8.20
2019-04-28T20:41:18.975Z,8.20
2019-04-28T20:43:53.779Z,8.20
2019-04-28T20:46:22.887Z,8.10
2019-04-28T20:48:50.473Z,8.10
2019-04-28T20:51:17.655Z,8.00
2019-04-28T20:53:45.203Z,8.10
2019-04-28T20:56:12.387Z,8.10
2019-04-28T20:58:39.623Z,8.10
2019-04-28T21:01:07.179Z,8.00
2019-04-28T21:03:34.844Z,8.00
2019-04-28T21:06:02.515Z,8.00
2019-04-28T21:08:30.953Z,7.90
2019-04-28T21:10:58.171Z,7.90
2019-04-28T21:13:25.493Z,7.90
2019-04-28T21:15:52.799Z,7.90
2019-04-28T21:18:20.953Z,7.80
2019-04-28T21:20:48.235Z,7.70
2019-04-28T21:23:15.684Z,7.70
2019-04-28T21:25:43.291Z,7.60
2019-04-28T21:28:10.907Z,7.60
2019-04-28T21:30:39.245Z,7.60
2019-04-28T21:33:06.865Z,7.60
2019-04-28T21:35:34.370Z,7.60
2019-04-28T21:38:01.727Z,7.50
2019-04-28T21:40:29.239Z,7.50
2019-04-28T21:43:10.912Z,7.40
2019-04-28T21:46:00.978Z,7.40
2019-04-28T21:48:40.167Z,7.40
2019-04-28T21:51:07.682Z,7.30
2019-04-28T21:53:36.730Z,7.20
2019-04-28T21:56:04.098Z,7.20
2019-04-28T21:58:33.549Z,7.10
2019-04-28T22:01:01.320Z,7.10
2019-04-28T22:03:28.886Z,7.10
2019-04-28T22:05:56.095Z,7.10
2019-04-28T22:08:23.303Z,7.10
2019-04-28T22:10:50.840Z,7.10
2019-04-28T22:13:18.421Z,7.10
2019-04-28T22:15:45.987Z,7.00
2019-04-28T22:18:13.238Z,7.00
2019-04-28T22:20:40.699Z,7.00
2019-04-28T22:23:18.238Z,7.00
2019-04-28T22:25:40.472Z,7.00
2019-04-28T22:28:09.655Z,7.00
2019-04-28T22:30:37.111Z,6.90
2019-04-28T22:33:04.311Z,6.90
2019-04-28T22:35:31.533Z,6.80
2019-04-28T22:37:59.395Z,6.80
2019-04-28T22:40:26.599Z,6.80
2019-04-28T22:42:53.950Z,6.70
2019-04-28T22:45:21.150Z,6.70
2019-04-28T22:47:49.035Z,6.60
2019-04-28T22:50:42.903Z,6.60
2019-04-28T22:53:10.940Z,6.60
2019-04-28T22:55:46.930Z,6.50
2019-04-28T22:58:29.223Z,6.50
2019-04-28T23:01:06.007Z,6.40
2019-04-28T23:03:38.788Z,6.40
2019-04-28T23:06:06.655Z,6.40
2019-04-28T23:08:34.130Z,6.40
2019-04-28T23:11:01.585Z,6.40
2019-04-28T23:13:28.842Z,6.50
2019-04-28T23:15:56.840Z,6.40
2019-04-28T23:18:24.260Z,6.40
2019-04-28T23:20:54.835Z,6.30
2019-04-28T23:23:22.987Z,6.30
2019-04-28T23:25:50.207Z,6.20
2019-04-28T23:28:17.699Z,6.20
2019-04-28T23:30:46.069Z,6.20
2019-04-28T23:33:13.554Z,6.10
2019-04-28T23:35:40.734Z,6.10
2019-04-28T23:38:07.987Z,6.10
2019-04-28T23:40:37.462Z,6.00
2019-04-28T23:43:08.557Z,6.00
2019-04-28T23:45:35.846Z,5.90
2019-04-28T23:48:03.279Z,5.90
2019-04-28T23:50:37.355Z,5.90
2019-04-28T23:53:08.246Z,5.90
2019-04-28T23:55:35.729Z,5.90
2019-04-28T23:58:02.955Z,6.00
